Naftocement III — SVA7368 — position and weather

sailwx.info

Track history (hours):
 
Tides and Currents Weather Stations Pressure Air Temp Water Temp Dewpoint Dewpoint Depression Visibility Wind Speed Wind Dir Waves Ship Positions

Naftocement III

Last reported at 2018-Jun-21 09:07 UTC. Time now 2018-Jun-21 21:59 UTC.
Position N 37°12' E 024°50'.

Length 77 m; draft 5 m.

Type: Cargo ship. MMSI: 241496000.

Date/timePositionNaut miles runAvg speedWind from/ knotsBaromVisibWave heightAir tempDewpointWater temp
2018-Jun-21 09:07N 37°12' E 024°50'1 7.5
2018-Jun-21 09:00N 37°12' E 024°51'4 7.6
2018-Jun-21 08:31N 37°14' E 024°55'4 7.8
2018-Jun-21 08:01N 37°17' E 024°58'4 8.0
2018-Jun-21 07:30N 37°19' E 025°02'4 7.7
2018-Jun-21 07:00N 37°22' E 025°06'4 7.5
2018-Jun-21 06:30N 37°25' E 025°09'4 7.2
2018-Jun-21 05:56N 37°27' E 025°14'3 7.6
2018-Jun-21 05:30N 37°27' E 025°18'2 2.6
2018-Jun-21 04:54N 37°28' E 025°20'0 0.0
2018-Jun-21 04:30N 37°28' E 025°20'0 0.0
2018-Jun-21 04:00N 37°28' E 025°20'0 0.0
2018-Jun-21 03:30N 37°28' E 025°20'0 0.0
2018-Jun-21 03:00N 37°28' E 025°20'0 0.0
2018-Jun-21 02:30N 37°28' E 025°20'0 0.0
2018-Jun-21 02:00N 37°28' E 025°20'0 0.0
2018-Jun-21 01:30N 37°28' E 025°20'0 0.0
2018-Jun-21 01:00N 37°28' E 025°20'0 0.0
2018-Jun-21 00:30N 37°28' E 025°20'0 0.0
2018-Jun-21 00:00N 37°28' E 025°20'0 0.0
2018-Jun-20 23:30N 37°28' E 025°20'0 0.0
2018-Jun-20 23:00N 37°28' E 025°20'0 0.0
2018-Jun-20 22:27N 37°28' E 025°20'0 0.0
2018-Jun-20 22:00N 37°28' E 025°20'0 0.0
2018-Jun-20 21:30N 37°28' E 025°20'0 0.0
2018-Jun-20 21:00N 37°28' E 025°20'0 0.0
2018-Jun-20 20:30N 37°28' E 025°20'0 0.0
2018-Jun-20 20:00N 37°28' E 025°20'0 0.0
2018-Jun-20 19:30N 37°28' E 025°20'0 0.0
2018-Jun-20 18:57N 37°28' E 025°20'0 0.0
2018-Jun-20 18:30N 37°28' E 025°20'0 0.0
2018-Jun-20 17:57N 37°28' E 025°20'0 0.0
2018-Jun-20 17:27N 37°28' E 025°20'0 0.0
2018-Jun-20 17:00N 37°28' E 025°20'0 0.0
2018-Jun-20 16:30N 37°28' E 025°20'0 0.0
2018-Jun-20 15:59N 37°28' E 025°20'0 0.0
2018-Jun-20 15:28N 37°28' E 025°20'2 3.3
2018-Jun-20 15:00N 37°27' E 025°18'4 7.2
2018-Jun-20 14:30N 37°24' E 025°17'4 7.0
2018-Jun-20 14:00N 37°20' E 025°18'3 6.9
2018-Jun-20 13:30N 37°17' E 025°18'4 7.1
2018-Jun-20 13:00N 37°13' E 025°18'4 7.2
2018-Jun-20 12:30N 37°09' E 025°19'4 7.0
2018-Jun-20 12:00N 37°06' E 025°18'3 7.0
2018-Jun-20 11:30N 37°03' E 025°18'  
2018-Jun-15 09:35N 37°31' E 025°55'1 6.5
2018-Jun-15 09:30N 37°31' E 025°55'11 7.2
2018-Jun-15 07:59N 37°37' E 025°43'3 7.2
2018-Jun-15 07:30N 37°39' E 025°40'4 7.1
2018-Jun-15 07:01N 37°41' E 025°36'4 7.1
2018-Jun-15 06:30N 37°44' E 025°33'4 7.2
2018-Jun-15 05:58N 37°46' E 025°29'3 6.7
2018-Jun-15 05:31N 37°48' E 025°27'3 6.9
2018-Jun-15 05:01N 37°51' E 025°23'4 7.1
2018-Jun-15 04:25N 37°53' E 025°19'3 7.4
2018-Jun-15 03:59N 37°55' E 025°16'50 7.5
2018-Jun-14 21:21N 38°28' E 024°29'3 7.1
2018-Jun-14 20:55N 38°30' E 024°26'54 1.0
2018-Jun-12 17:02N 37°40' E 024°52'0 8.7
2018-Jun-12 17:00N 37°40' E 024°52'17 8.1
2018-Jun-12 14:55N 37°26' E 025°04'3 7.6
2018-Jun-12 14:30N 37°24' E 025°06'4 7.8
2018-Jun-12 14:00N 37°21' E 025°09'4 8.0
2018-Jun-12 13:30N 37°17' E 025°12'4 8.7
2018-Jun-12 13:00N 37°14' E 025°15'4 8.4
2018-Jun-12 12:31N 37°10' E 025°18'4 7.6
2018-Jun-12 12:01N 37°06' E 025°18'4 7.3
2018-Jun-12 11:30N 37°03' E 025°18'  
Track history (hours):
 
Tides and Currents Weather Stations Pressure Air Temp Water Temp Dewpoint Dewpoint Depression Visibility Wind Speed Wind Dir Waves Ship Positions

Naftocement III

Last reported at 2018-Jun-21 09:07 UTC. Time now 2018-Jun-21 21:59 UTC.
Position N 37°12' E 024°50'.

Length 77 m; draft 5 m.

Type: Cargo ship. MMSI: 241496000.

Date/timePositionNaut miles runAvg speedWind from/ knotsBaromVisibWave heightAir tempDewpointWater temp
2018-Jun-21 09:07N 37°12' E 024°50'1 7.5
2018-Jun-21 09:00N 37°12' E 024°51'4 7.6
2018-Jun-21 08:31N 37°14' E 024°55'4 7.8
2018-Jun-21 08:01N 37°17' E 024°58'4 8.0
2018-Jun-21 07:30N 37°19' E 025°02'4 7.7
2018-Jun-21 07:00N 37°22' E 025°06'4 7.5
2018-Jun-21 06:30N 37°25' E 025°09'4 7.2
2018-Jun-21 05:56N 37°27' E 025°14'3 7.6
2018-Jun-21 05:30N 37°27' E 025°18'2 2.6
2018-Jun-21 04:54N 37°28' E 025°20'0 0.0
2018-Jun-21 04:30N 37°28' E 025°20'0 0.0
2018-Jun-21 04:00N 37°28' E 025°20'0 0.0
2018-Jun-21 03:30N 37°28' E 025°20'0 0.0
2018-Jun-21 03:00N 37°28' E 025°20'0 0.0
2018-Jun-21 02:30N 37°28' E 025°20'0 0.0
2018-Jun-21 02:00N 37°28' E 025°20'0 0.0
2018-Jun-21 01:30N 37°28' E 025°20'0 0.0
2018-Jun-21 01:00N 37°28' E 025°20'0 0.0
2018-Jun-21 00:30N 37°28' E 025°20'0 0.0
2018-Jun-21 00:00N 37°28' E 025°20'0 0.0
2018-Jun-20 23:30N 37°28' E 025°20'0 0.0
2018-Jun-20 23:00N 37°28' E 025°20'0 0.0
2018-Jun-20 22:27N 37°28' E 025°20'0 0.0
2018-Jun-20 22:00N 37°28' E 025°20'0 0.0
2018-Jun-20 21:30N 37°28' E 025°20'0 0.0
2018-Jun-20 21:00N 37°28' E 025°20'0 0.0
2018-Jun-20 20:30N 37°28' E 025°20'0 0.0
2018-Jun-20 20:00N 37°28' E 025°20'0 0.0
2018-Jun-20 19:30N 37°28' E 025°20'0 0.0
2018-Jun-20 18:57N 37°28' E 025°20'0 0.0
2018-Jun-20 18:30N 37°28' E 025°20'0 0.0
2018-Jun-20 17:57N 37°28' E 025°20'0 0.0
2018-Jun-20 17:27N 37°28' E 025°20'0 0.0
2018-Jun-20 17:00N 37°28' E 025°20'0 0.0
2018-Jun-20 16:30N 37°28' E 025°20'0 0.0
2018-Jun-20 15:59N 37°28' E 025°20'0 0.0
2018-Jun-20 15:28N 37°28' E 025°20'2 3.3
2018-Jun-20 15:00N 37°27' E 025°18'4 7.2
2018-Jun-20 14:30N 37°24' E 025°17'4 7.0
2018-Jun-20 14:00N 37°20' E 025°18'3 6.9
2018-Jun-20 13:30N 37°17' E 025°18'4 7.1
2018-Jun-20 13:00N 37°13' E 025°18'4 7.2
2018-Jun-20 12:30N 37°09' E 025°19'4 7.0
2018-Jun-20 12:00N 37°06' E 025°18'3 7.0
2018-Jun-20 11:30N 37°03' E 025°18'  
2018-Jun-15 09:35N 37°31' E 025°55'1 6.5
2018-Jun-15 09:30N 37°31' E 025°55'11 7.2
2018-Jun-15 07:59N 37°37' E 025°43'3 7.2
2018-Jun-15 07:30N 37°39' E 025°40'4 7.1
2018-Jun-15 07:01N 37°41' E 025°36'4 7.1
2018-Jun-15 06:30N 37°44' E 025°33'4 7.2
2018-Jun-15 05:58N 37°46' E 025°29'3 6.7
2018-Jun-15 05:31N 37°48' E 025°27'3 6.9
2018-Jun-15 05:01N 37°51' E 025°23'4 7.1
2018-Jun-15 04:25N 37°53' E 025°19'3 7.4
2018-Jun-15 03:59N 37°55' E 025°16'50 7.5
2018-Jun-14 21:21N 38°28' E 024°29'3 7.1
2018-Jun-14 20:55N 38°30' E 024°26'54 1.0
2018-Jun-12 17:02N 37°40' E 024°52'0 8.7
2018-Jun-12 17:00N 37°40' E 024°52'17 8.1
2018-Jun-12 14:55N 37°26' E 025°04'3 7.6
2018-Jun-12 14:30N 37°24' E 025°06'4 7.8
2018-Jun-12 14:00N 37°21' E 025°09'4 8.0
2018-Jun-12 13:30N 37°17' E 025°12'4 8.7
2018-Jun-12 13:00N 37°14' E 025°15'4 8.4
2018-Jun-12 12:31N 37°10' E 025°18'4 7.6
2018-Jun-12 12:01N 37°06' E 025°18'4 7.3
2018-Jun-12 11:30N 37°03' E 025°18'  

Dump ship's entire track history